createdAt,value
2022-08-22T00:00:13.295Z,6.38
2022-08-22T00:02:44.407Z,5.55
2022-08-22T00:02:58.483Z,5.55
2022-08-22T00:03:10.963Z,8.05
2022-08-22T00:03:11.931Z,5.72
2022-08-22T00:03:15.720Z,6.97
2022-08-22T00:05:39.049Z,4.20
2022-08-22T00:08:09.722Z,5.07
2022-08-22T00:10:48.767Z,4.85
2022-08-22T00:13:20.804Z,5.22
2022-08-22T00:15:51.508Z,4.72
2022-08-22T00:18:22.421Z,6.18
2022-08-22T00:20:52.980Z,5.50
2022-08-22T00:23:24.760Z,4.55
2022-08-22T00:25:56.732Z,6.43
2022-08-22T00:28:26.998Z,3.50
2022-08-22T00:30:57.894Z,3.60
2022-08-22T00:33:29.590Z,9.07
2022-08-22T00:36:15.583Z,7.60
2022-08-22T00:38:47.219Z,6.03
2022-08-22T00:41:24.522Z,6.60
2022-08-22T00:44:16.694Z,5.53
2022-08-22T00:46:59.910Z,6.53
2022-08-22T00:49:37.891Z,4.63
2022-08-22T00:52:24.121Z,4.18
2022-08-22T00:55:01.405Z,6.40
2022-08-22T00:57:41.292Z,5.80
2022-08-22T01:00:18.488Z,6.00
2022-08-22T01:02:57.673Z,6.63
2022-08-22T01:05:32.181Z,4.68
2022-08-22T01:08:07.167Z,4.18
2022-08-22T01:10:45.758Z,4.97
2022-08-22T01:13:23.517Z,6.18
2022-08-22T01:15:56.301Z,5.85
2022-08-22T01:18:31.795Z,6.28
2022-08-22T01:21:20.751Z,4.85
2022-08-22T01:24:07.581Z,7.00
2022-08-22T01:26:52.448Z,4.15
2022-08-22T01:29:34.219Z,4.88
2022-08-22T01:32:26.713Z,6.65
2022-08-22T01:35:11.397Z,4.82
2022-08-22T01:38:09.717Z,4.97
2022-08-22T01:40:53.302Z,5.18
2022-08-22T01:43:58.894Z,7.25
2022-08-22T01:46:27.857Z,4.68
2022-08-22T01:48:59.909Z,4.50
2022-08-22T01:51:34.364Z,4.35
2022-08-22T01:54:04.508Z,4.85
2022-08-22T01:56:35.967Z,5.65
2022-08-22T01:59:10.070Z,5.40
2022-08-22T02:01:46.081Z,6.47
2022-08-22T02:04:17.756Z,6.65
2022-08-22T02:06:52.618Z,6.38
2022-08-22T02:09:31.186Z,8.50
2022-08-22T02:12:02.126Z,6.70
2022-08-22T02:14:40.260Z,7.82
2022-08-22T02:17:15.513Z,5.50
2022-08-22T02:19:49.100Z,5.40
2022-08-22T02:22:23.447Z,7.07
2022-08-22T02:24:56.430Z,6.40
2022-08-22T02:27:33.365Z,6.85
2022-08-22T02:30:04.489Z,6.32
2022-08-22T02:32:38.041Z,5.90
2022-08-22T02:35:09.265Z,6.38
2022-08-22T02:37:42.080Z,5.68
2022-08-22T02:40:14.770Z,6.45
2022-08-22T02:42:45.111Z,5.32
2022-08-22T02:45:20.308Z,5.40
2022-08-22T02:47:52.104Z,5.22
2022-08-22T02:50:25.330Z,7.90
2022-08-22T02:52:58.294Z,5.05
2022-08-22T02:55:35.063Z,4.97
2022-08-22T02:58:07.020Z,8.10
2022-08-22T03:00:46.278Z,6.72
2022-08-22T03:03:19.408Z,6.38
2022-08-22T03:05:55.962Z,4.47
2022-08-22T03:08:29.316Z,8.25
2022-08-22T03:11:00.613Z,8.07
2022-08-22T03:13:37.488Z,9.55
2022-08-22T03:16:08.442Z,8.77
2022-08-22T03:18:45.137Z,5.40
2022-08-22T03:21:16.615Z,7.63
2022-08-22T03:23:47.932Z,5.78
2022-08-22T03:26:19.258Z,6.82
2022-08-22T03:28:59.513Z,8.27
2022-08-22T03:31:29.395Z,8.23
2022-08-22T03:34:31.076Z,8.30
2022-08-22T03:37:04.383Z,6.72
2022-08-22T03:39:56.528Z,5.78
2022-08-22T03:42:34.929Z,6.93
2022-08-22T03:45:21.781Z,7.13
2022-08-22T03:48:11.132Z,9.50
2022-08-22T03:50:48.111Z,12.07
2022-08-22T03:53:43.808Z,9.85
2022-08-22T03:56:22.323Z,7.30
2022-08-22T03:59:11.356Z,5.35
2022-08-22T04:01:52.042Z,5.25
2022-08-22T04:04:38.565Z,9.88
2022-08-22T04:07:31.416Z,5.45
2022-08-22T04:10:18.775Z,10.75
2022-08-22T04:12:53.083Z,10.32
2022-08-22T04:15:41.336Z,6.82
2022-08-22T04:18:27.125Z,8.27
2022-08-22T04:21:17.063Z,8.25
2022-08-22T04:24:06.709Z,8.00
2022-08-22T04:26:41.519Z,9.02
2022-08-22T04:29:13.772Z,9.65
2022-08-22T04:31:46.807Z,8.93
2022-08-22T04:34:20.391Z,8.27
2022-08-22T04:36:52.295Z,8.90
2022-08-22T04:39:23.961Z,9.90
2022-08-22T04:41:54.652Z,9.93
2022-08-22T04:44:25.361Z,9.55
2022-08-22T04:46:58.175Z,8.05
2022-08-22T04:49:31.060Z,7.30
2022-08-22T04:52:02.046Z,7.35
2022-08-22T04:54:38.899Z,6.57
2022-08-22T04:57:19.512Z,9.80
2022-08-22T04:59:48.000Z,7.13
2022-08-22T05:02:22.448Z,9.15
2022-08-22T05:04:54.243Z,7.25
2022-08-22T05:07:23.962Z,11.20
2022-08-22T05:09:54.830Z,9.25
2022-08-22T05:12:26.013Z,8.73
2022-08-22T05:14:59.997Z,10.18
2022-08-22T05:17:31.517Z,9.13
2022-08-22T05:20:04.829Z,12.95
2022-08-22T05:22:36.599Z,9.35
2022-08-22T05:25:08.150Z,8.95
2022-08-22T05:27:37.619Z,10.38
2022-08-22T05:30:09.635Z,9.95
2022-08-22T05:32:43.117Z,9.48
2022-08-22T05:35:13.035Z,11.63
2022-08-22T05:37:43.238Z,13.10
2022-08-22T05:40:16.175Z,10.88
2022-08-22T05:42:45.060Z,9.52
2022-08-22T05:45:15.819Z,10.10
2022-08-22T05:47:46.995Z,11.07
2022-08-22T05:50:19.264Z,12.02
2022-08-22T05:52:56.592Z,11.63
2022-08-22T05:55:28.016Z,10.70
2022-08-22T05:58:11.534Z,12.93
2022-08-22T06:00:41.860Z,13.88
2022-08-22T06:03:15.362Z,7.25
2022-08-22T06:05:48.669Z,13.13
2022-08-22T06:08:23.348Z,11.18
2022-08-22T06:10:53.367Z,9.68
2022-08-22T06:13:41.489Z,12.52
2022-08-22T06:16:11.771Z,12.95
2022-08-22T06:18:42.007Z,14.70
2022-08-22T06:21:13.580Z,10.23
2022-08-22T06:23:44.899Z,13.77
2022-08-22T06:26:20.845Z,12.80
2022-08-22T06:28:55.066Z,13.48
2022-08-22T06:31:25.238Z,10.48
2022-08-22T06:33:56.551Z,14.18
2022-08-22T06:36:34.141Z,12.18
2022-08-22T06:39:09.280Z,11.77
2022-08-22T06:41:40.638Z,9.63
2022-08-22T06:44:09.841Z,11.70
2022-08-22T06:46:39.554Z,13.23
2022-08-22T06:49:09.947Z,10.98
2022-08-22T06:51:40.762Z,11.05
2022-08-22T06:54:13.375Z,11.38
2022-08-22T06:56:43.754Z,11.82
2022-08-22T06:59:14.667Z,11.50
2022-08-22T07:01:47.475Z,9.18
2022-08-22T07:04:15.953Z,10.10
2022-08-22T07:06:48.592Z,14.75
2022-08-22T07:09:20.666Z,9.98
2022-08-22T07:11:49.206Z,10.15
2022-08-22T07:14:19.282Z,10.63
2022-08-22T07:16:49.864Z,8.88
2022-08-22T07:19:26.516Z,10.25
2022-08-22T07:21:57.277Z,11.40
2022-08-22T07:24:28.294Z,12.43
2022-08-22T07:27:05.834Z,11.60
2022-08-22T07:29:38.337Z,12.27
2022-08-22T07:32:11.100Z,11.00
2022-08-22T07:34:44.765Z,11.55
2022-08-22T07:37:17.815Z,11.93
2022-08-22T07:39:51.553Z,11.50
2022-08-22T07:42:28.594Z,13.80
2022-08-22T07:45:03.964Z,13.13
2022-08-22T07:47:36.547Z,9.82
2022-08-22T07:50:08.096Z,11.23
2022-08-22T07:52:41.931Z,9.07
2022-08-22T07:55:15.686Z,11.50
2022-08-22T07:57:46.633Z,9.88
2022-08-22T08:00:17.104Z,8.77
2022-08-22T08:02:47.279Z,11.32
2022-08-22T08:05:16.335Z,9.63
2022-08-22T08:07:47.880Z,11.07
2022-08-22T08:10:19.351Z,12.30
2022-08-22T08:13:01.768Z,9.82
2022-08-22T08:15:32.523Z,8.20
2022-08-22T08:18:03.859Z,7.70
2022-08-22T08:20:34.492Z,8.52
2022-08-22T08:23:05.625Z,11.43
2022-08-22T08:25:53.554Z,8.82
2022-08-22T08:28:34.344Z,9.43
2022-08-22T08:32:51.036Z,9.65
2022-08-22T08:35:28.180Z,10.10
2022-08-22T08:38:00.112Z,8.00
2022-08-22T08:40:49.556Z,7.47
2022-08-22T08:43:31.372Z,10.60
2022-08-22T08:46:11.672Z,9.15
2022-08-22T08:49:13.374Z,9.20
2022-08-22T08:51:54.512Z,7.22
2022-08-22T08:54:30.507Z,9.73
2022-08-22T08:57:01.308Z,6.55
2022-08-22T08:59:44.056Z,8.38
2022-08-22T09:02:23.606Z,7.18
2022-08-22T09:05:06.984Z,10.93
2022-08-22T09:07:50.335Z,7.70
2022-08-22T09:10:33.623Z,7.60
2022-08-22T09:13:12.161Z,5.40
2022-08-22T09:15:54.939Z,8.00
2022-08-22T09:18:43.579Z,9.77
2022-08-22T09:24:26.024Z,7.78
2022-08-22T09:26:57.249Z,7.63
2022-08-22T09:29:54.830Z,6.93
2022-08-22T09:32:31.869Z,6.18
2022-08-22T09:35:03.425Z,9.40
2022-08-22T09:37:37.738Z,7.35
2022-08-22T09:40:13.349Z,4.63
2022-08-22T09:43:05.415Z,7.55
2022-08-22T09:45:45.406Z,6.88
2022-08-22T09:48:30.529Z,5.78
2022-08-22T09:51:26.695Z,7.72
2022-08-22T09:54:01.006Z,7.25
2022-08-22T09:56:37.988Z,9.50
2022-08-22T09:59:12.062Z,7.30
2022-08-22T10:01:48.899Z,7.40
2022-08-22T10:04:36.524Z,6.13
2022-08-22T10:07:11.867Z,5.85
2022-08-22T10:09:49.114Z,4.72
2022-08-22T10:12:30.530Z,5.38
2022-08-22T10:15:11.954Z,4.60
2022-08-22T10:17:42.257Z,5.28
2022-08-22T10:20:15.737Z,3.78
2022-08-22T10:22:48.170Z,4.90
2022-08-22T10:25:30.442Z,4.60
2022-08-22T10:28:06.407Z,4.18
2022-08-22T10:30:44.668Z,5.95
2022-08-22T10:33:16.225Z,4.78
2022-08-22T10:35:49.824Z,5.90
2022-08-22T10:38:25.258Z,4.47
2022-08-22T10:41:00.892Z,5.25
2022-08-22T10:43:33.245Z,5.80
2022-08-22T10:48:34.561Z,3.85
2022-08-22T10:51:08.678Z,3.70
2022-08-22T10:53:42.794Z,6.22
2022-08-22T10:56:13.471Z,3.78
2022-08-22T10:58:44.397Z,4.72
2022-08-22T11:01:38.446Z,4.97
2022-08-22T11:04:13.634Z,5.72
2022-08-22T11:06:47.002Z,5.88
2022-08-22T11:09:28.258Z,5.78
2022-08-22T11:12:00.125Z,4.97
2022-08-22T11:14:54.045Z,5.90
2022-08-22T11:17:33.808Z,6.05
2022-08-22T11:20:14.188Z,4.30
2022-08-22T11:22:47.693Z,5.13
2022-08-22T11:25:36.009Z,5.63
2022-08-22T11:28:28.846Z,4.25
2022-08-22T11:31:03.402Z,4.30
2022-08-22T11:33:47.446Z,4.80
2022-08-22T11:36:26.130Z,5.82
2022-08-22T11:39:02.181Z,5.78
2022-08-22T11:41:33.303Z,5.60
2022-08-22T11:44:04.176Z,4.25
2022-08-22T11:46:34.047Z,7.13
2022-08-22T11:49:09.145Z,4.40
2022-08-22T11:51:51.266Z,6.07
2022-08-22T11:54:31.103Z,6.13
2022-08-22T11:57:05.655Z,4.20
2022-08-22T11:59:43.029Z,4.72
2022-08-22T12:02:19.401Z,4.70
2022-08-22T12:04:48.891Z,4.20
2022-08-22T12:07:20.082Z,5.38
2022-08-22T12:09:55.203Z,5.53
2022-08-22T12:12:28.285Z,7.40
2022-08-22T12:14:59.074Z,7.07
2022-08-22T12:17:55.282Z,5.40
2022-08-22T12:20:40.079Z,5.82
2022-08-22T12:23:30.397Z,7.20
2022-08-22T12:26:19.494Z,6.57
2022-08-22T12:28:56.613Z,4.55
2022-08-22T12:31:32.939Z,4.15
2022-08-22T12:34:07.758Z,4.80
2022-08-22T12:36:59.009Z,6.97
2022-08-22T12:39:41.215Z,4.32
2022-08-22T12:42:17.573Z,5.43
2022-08-22T12:44:52.924Z,9.00
2022-08-22T12:47:31.899Z,5.30
2022-08-22T12:50:16.496Z,5.30
2022-08-22T12:52:55.239Z,5.60
2022-08-22T12:55:42.240Z,6.43
2022-08-22T12:58:17.707Z,5.30
2022-08-22T13:00:47.591Z,5.50
2022-08-22T13:03:26.240Z,6.50
2022-08-22T13:05:57.162Z,4.18
2022-08-22T13:08:30.988Z,7.05
2022-08-22T13:11:01.328Z,5.80
2022-08-22T13:13:37.155Z,6.03
2022-08-22T13:16:08.501Z,6.45
2022-08-22T13:18:44.580Z,16.50
2022-08-22T13:21:15.265Z,5.30
2022-08-22T13:23:44.808Z,6.50
2022-08-22T13:26:33.120Z,5.80
2022-08-22T13:29:27.488Z,6.07
2022-08-22T13:31:59.131Z,5.15
2022-08-22T13:34:38.423Z,4.97
2022-08-22T13:37:10.199Z,5.22
2022-08-22T13:39:40.184Z,5.22
2022-08-22T13:42:14.504Z,3.30
2022-08-22T13:44:52.593Z,4.00
2022-08-22T13:47:23.486Z,4.75
2022-08-22T13:49:54.113Z,5.20
2022-08-22T13:52:29.749Z,4.32
2022-08-22T13:55:01.416Z,9.15
2022-08-22T13:57:31.193Z,5.90
2022-08-22T14:00:06.572Z,7.07
2022-08-22T14:05:16.083Z,7.97
2022-08-22T14:07:50.050Z,3.55
2022-08-22T14:10:23.778Z,6.68
2022-08-22T14:13:17.513Z,5.55
2022-08-22T14:15:46.317Z,5.75
2022-08-22T14:18:18.581Z,4.30
2022-08-22T14:20:49.140Z,4.65
2022-08-22T14:23:20.316Z,4.32
2022-08-22T14:25:52.989Z,5.72
2022-08-22T14:28:27.494Z,3.95
2022-08-22T14:31:00.980Z,4.00
2022-08-22T14:33:33.271Z,3.72
2022-08-22T14:36:06.599Z,7.53
2022-08-22T14:38:40.143Z,5.22
2022-08-22T14:41:25.144Z,7.20
2022-08-22T14:43:56.963Z,4.32
2022-08-22T14:46:28.637Z,6.30
2022-08-22T14:49:24.778Z,4.63
2022-08-22T14:51:59.309Z,6.25
2022-08-22T14:54:28.957Z,5.50
2022-08-22T14:56:59.416Z,4.15
2022-08-22T14:59:32.907Z,4.20
2022-08-22T15:02:03.527Z,3.35
2022-08-22T15:04:35.483Z,4.65
2022-08-22T15:07:05.625Z,4.43
2022-08-22T15:09:35.648Z,2.92
2022-08-22T15:12:05.315Z,7.35
2022-08-22T15:14:44.271Z,3.75
2022-08-22T15:17:34.692Z,5.85
2022-08-22T15:20:11.192Z,4.85
2022-08-22T15:22:45.477Z,5.00
2022-08-22T15:25:18.081Z,3.38
2022-08-22T15:27:53.968Z,3.83
2022-08-22T15:30:34.310Z,5.63
2022-08-22T15:33:10.372Z,7.10
2022-08-22T15:35:39.514Z,5.68
2022-08-22T15:38:27.782Z,4.47
2022-08-22T15:40:56.897Z,7.70
2022-08-22T15:43:28.762Z,3.65
2022-08-22T15:46:18.355Z,4.35
2022-08-22T15:48:56.173Z,2.85
2022-08-22T15:51:36.594Z,4.85
2022-08-22T15:54:16.161Z,5.65
2022-08-22T15:57:08.440Z,3.97
2022-08-22T15:59:48.148Z,5.30
2022-08-22T16:02:27.093Z,5.97
2022-08-22T16:04:59.382Z,4.82
2022-08-22T16:07:35.090Z,4.32
2022-08-22T16:10:08.475Z,5.32
2022-08-22T16:12:38.260Z,5.03
2022-08-22T16:15:08.282Z,4.20
2022-08-22T16:17:41.404Z,4.55
2022-08-22T16:20:28.529Z,5.28
2022-08-22T16:23:17.869Z,5.53
2022-08-22T16:26:04.975Z,5.80
2022-08-22T16:28:57.326Z,5.97
2022-08-22T16:31:28.470Z,4.78
2022-08-22T16:33:57.806Z,4.15
2022-08-22T16:36:41.394Z,4.18
2022-08-22T16:39:12.731Z,5.90
2022-08-22T16:41:42.550Z,5.10
2022-08-22T16:44:16.991Z,7.97
2022-08-22T16:46:46.815Z,5.85
2022-08-22T16:49:26.538Z,7.57
2022-08-22T16:52:25.139Z,9.75
2022-08-22T16:55:00.130Z,7.22
2022-08-22T16:57:36.075Z,5.70
2022-08-22T17:00:13.561Z,5.88
2022-08-22T17:03:03.370Z,6.53
2022-08-22T17:05:39.802Z,8.48
2022-08-22T17:08:15.026Z,8.85
2022-08-22T17:10:48.339Z,5.50
2022-08-22T17:13:26.283Z,5.28
2022-08-22T17:16:05.885Z,4.93
2022-08-22T17:18:58.179Z,5.43
2022-08-22T17:21:28.366Z,4.32
2022-08-22T17:24:01.870Z,4.05
2022-08-22T17:26:36.383Z,5.82
2022-08-22T17:29:08.579Z,3.88
2022-08-22T17:31:44.378Z,7.40
2022-08-22T17:34:20.492Z,4.38
2022-08-22T17:36:55.356Z,5.32
2022-08-22T17:39:35.049Z,5.65
2022-08-22T17:42:10.300Z,3.60
2022-08-22T17:44:52.707Z,4.35
2022-08-22T17:47:24.832Z,5.63
2022-08-22T17:49:55.999Z,5.82
2022-08-22T17:52:26.792Z,5.18
2022-08-22T17:54:58.693Z,8.40
2022-08-22T17:57:29.471Z,6.35
2022-08-22T18:00:00.916Z,5.97
2022-08-22T18:02:34.630Z,6.25
2022-08-22T18:05:06.160Z,4.55
2022-08-22T18:07:40.868Z,9.85
2022-08-22T18:10:14.824Z,7.90
2022-08-22T18:12:46.662Z,6.88
2022-08-22T18:15:22.154Z,5.53
2022-08-22T18:17:55.050Z,7.88
2022-08-22T18:20:26.394Z,4.82
2022-08-22T18:22:57.626Z,6.32
2022-08-22T18:25:33.357Z,6.47
2022-08-22T18:28:07.740Z,8.75
2022-08-22T18:30:38.176Z,6.72
2022-08-22T18:33:13.717Z,5.18
2022-08-22T18:35:49.848Z,10.05
2022-08-22T18:38:24.654Z,9.10
2022-08-22T18:40:56.138Z,8.40
2022-08-22T18:43:29.782Z,5.03
2022-08-22T18:46:03.853Z,4.10
2022-08-22T18:48:54.265Z,6.28
2022-08-22T18:51:25.093Z,6.22
2022-08-22T18:53:55.311Z,5.65
2022-08-22T18:56:35.727Z,6.35
2022-08-22T18:59:07.632Z,5.13
2022-08-22T19:01:44.480Z,8.25
2022-08-22T19:04:26.911Z,8.02
2022-08-22T19:07:07.393Z,5.50
2022-08-22T19:09:54.749Z,7.32
2022-08-22T19:12:33.392Z,6.18
2022-08-22T19:15:10.823Z,7.53
2022-08-22T19:17:58.941Z,4.18
2022-08-22T19:20:48.608Z,5.28
2022-08-22T19:23:35.940Z,8.18
2022-08-22T19:26:24.221Z,7.15
2022-08-22T19:28:53.350Z,8.82
2022-08-22T19:31:23.786Z,6.15
2022-08-22T19:34:12.212Z,6.40
2022-08-22T19:36:42.433Z,6.53
2022-08-22T19:39:14.750Z,8.48
2022-08-22T19:41:45.841Z,4.72
2022-08-22T19:44:15.630Z,8.48
2022-08-22T19:46:44.157Z,5.72
2022-08-22T19:49:27.799Z,5.03
2022-08-22T19:52:11.855Z,5.07
2022-08-22T19:54:44.122Z,4.78
2022-08-22T19:57:16.593Z,7.57
2022-08-22T19:59:50.802Z,6.13
2022-08-22T20:02:24.841Z,4.57
2022-08-22T20:05:14.458Z,4.25
2022-08-22T20:07:53.730Z,5.47
2022-08-22T20:10:28.255Z,5.32
2022-08-22T20:13:05.551Z,5.78
2022-08-22T20:15:56.199Z,3.97
2022-08-22T20:18:47.674Z,8.05
2022-08-22T20:21:39.208Z,6.53
2022-08-22T20:24:08.590Z,7.75
2022-08-22T20:26:47.492Z,6.72
2022-08-22T20:29:27.444Z,8.38
2022-08-22T20:31:58.786Z,6.28
2022-08-22T20:34:29.681Z,4.88
2022-08-22T20:37:23.690Z,4.70
2022-08-22T20:39:58.691Z,5.43
2022-08-22T20:42:28.551Z,6.47
2022-08-22T20:44:57.469Z,5.50
2022-08-22T20:47:36.219Z,4.43
2022-08-22T20:50:12.728Z,5.10
2022-08-22T20:52:54.360Z,3.50
2022-08-22T20:55:31.228Z,3.58
2022-08-22T20:58:01.328Z,5.25
2022-08-22T21:00:31.907Z,3.80
2022-08-22T21:03:02.407Z,5.78
2022-08-22T21:05:34.871Z,6.13
2022-08-22T21:08:08.271Z,6.97
2022-08-22T21:10:55.279Z,5.55
2022-08-22T21:13:26.355Z,4.55
2022-08-22T21:15:55.324Z,5.75
2022-08-22T21:18:31.695Z,5.28
2022-08-22T21:21:17.347Z,5.25
2022-08-22T21:23:49.010Z,5.35
2022-08-22T21:26:22.628Z,4.88
2022-08-22T21:28:57.077Z,6.20
2022-08-22T21:31:26.625Z,3.53
2022-08-22T21:33:55.995Z,5.18
2022-08-22T21:36:25.997Z,7.30
2022-08-22T21:38:57.028Z,7.47
2022-08-22T21:41:26.906Z,5.13
2022-08-22T21:43:55.596Z,4.10
2022-08-22T21:46:28.863Z,4.25
2022-08-22T21:49:01.534Z,5.95
2022-08-22T21:51:31.830Z,4.95
2022-08-22T21:54:19.138Z,5.75
2022-08-22T21:56:49.091Z,4.63
2022-08-22T21:59:21.628Z,5.88
2022-08-22T22:01:53.700Z,5.97
2022-08-22T22:04:24.001Z,3.90
2022-08-22T22:06:52.399Z,5.05
2022-08-22T22:09:20.791Z,5.35
2022-08-22T22:11:50.569Z,6.55
2022-08-22T22:14:19.135Z,5.55
2022-08-22T22:16:47.516Z,5.90
2022-08-22T22:19:15.912Z,4.18
2022-08-22T22:21:44.383Z,4.32
2022-08-22T22:24:12.794Z,4.95
2022-08-22T22:26:41.220Z,4.55
2022-08-22T22:29:10.990Z,4.43
2022-08-22T22:31:39.430Z,5.90
2022-08-22T22:34:07.834Z,5.38
2022-08-22T22:36:36.692Z,4.03
2022-08-22T22:39:06.020Z,4.80
2022-08-22T22:41:34.565Z,3.70
2022-08-22T22:44:03.429Z,5.68
2022-08-22T22:46:33.166Z,4.25
2022-08-22T22:49:01.567Z,4.07
2022-08-22T22:51:29.952Z,4.95
2022-08-22T22:53:58.663Z,5.47
2022-08-22T22:56:27.144Z,5.50
2022-08-22T22:59:00.741Z,4.30
2022-08-22T23:02:00.475Z,5.55
2022-08-22T23:04:29.029Z,5.45
2022-08-22T23:06:57.412Z,5.20
2022-08-22T23:09:28.275Z,5.25
2022-08-22T23:12:07.792Z,4.85
2022-08-22T23:14:36.531Z,5.85
2022-08-22T23:17:07.223Z,5.13
2022-08-22T23:19:36.184Z,5.18
2022-08-22T23:22:05.175Z,4.18
2022-08-22T23:24:33.705Z,8.50
2022-08-22T23:27:02.175Z,4.57
2022-08-22T23:29:30.674Z,5.55
2022-08-22T23:32:00.251Z,3.92
2022-08-22T23:34:31.082Z,4.50
2022-08-22T23:37:00.675Z,4.50
2022-08-22T23:39:29.680Z,6.40
2022-08-22T23:41:58.840Z,6.53
2022-08-22T23:44:28.325Z,4.20
2022-08-22T23:46:56.897Z,3.70
2022-08-22T23:49:25.607Z,4.95
2022-08-22T23:51:55.339Z,4.57
2022-08-22T23:54:23.902Z,6.13
2022-08-22T23:56:53.395Z,3.97
2022-08-22T23:59:22.988Z,5.35
